createdAt,value
2022-09-18T00:29:15.259Z,1006.52
2022-09-18T00:29:55.675Z,1006.51
2022-09-18T00:30:36.079Z,1006.5
2022-09-18T00:31:16.700Z,1006.53
2022-09-18T00:31:57.132Z,1006.48
2022-09-18T00:32:37.613Z,1006.48
2022-09-18T00:33:58.522Z,1006.4
2022-09-18T00:34:38.984Z,1006.46
2022-09-18T00:35:19.463Z,1006.39
2022-09-18T00:35:59.917Z,1006.38
2022-09-18T00:36:40.361Z,1006.39
2022-09-18T00:37:20.814Z,1006.35
2022-09-18T00:38:01.282Z,1006.39
2022-09-18T00:38:41.794Z,1006.37
2022-09-18T00:39:22.230Z,1006.31
2022-09-18T00:40:02.821Z,1006.37
2022-09-18T00:40:43.228Z,1006.41
2022-09-18T00:41:23.733Z,1006.47
2022-09-18T00:42:04.210Z,1006.53
2022-09-18T00:42:44.792Z,1006.48
2022-09-18T00:44:05.748Z,1006.44
2022-09-18T00:44:46.313Z,1006.27
2022-09-18T00:45:26.683Z,1006.45
2022-09-18T00:46:07.188Z,1006.46
2022-09-18T00:46:47.718Z,1006.5
2022-09-18T00:47:28.213Z,1006.4
2022-09-18T00:48:08.696Z,1006.34
2022-09-18T00:48:49.178Z,1006.37
2022-09-18T00:49:29.638Z,1006.31
2022-09-18T00:50:10.103Z,1006.38
2022-09-18T00:50:50.661Z,1006.34
2022-09-18T00:51:31.110Z,1006.3
2022-09-18T00:52:11.593Z,1006.35
2022-09-18T00:52:52.103Z,1006.35
2022-09-18T00:53:32.635Z,1006.32
2022-09-18T00:54:13.070Z,1006.29
2022-09-18T00:54:53.573Z,1006.32
2022-09-18T00:55:34.099Z,1006.35
2022-09-18T00:56:14.543Z,1006.35
2022-09-18T00:56:54.993Z,1006.42
2022-09-18T00:57:35.451Z,1006.47
2022-09-18T00:58:15.914Z,1006.48
2022-09-18T00:58:56.453Z,1006.44
2022-09-18T00:59:36.899Z,1006.4
2022-09-18T01:00:17.498Z,1006.48
2022-09-18T01:00:57.919Z,1006.51
2022-09-18T01:01:38.407Z,1006.5
2022-09-18T01:02:18.941Z,1006.5
2022-09-18T01:02:59.339Z,1006.53
2022-09-18T01:04:20.368Z,1006.5
2022-09-18T01:05:00.907Z,1006.5
2022-09-18T01:05:41.304Z,1006.5
2022-09-18T01:06:21.775Z,1006.5
2022-09-18T01:07:02.263Z,1006.47
2022-09-18T01:07:42.772Z,1006.46
2022-09-18T01:08:23.246Z,1006.51
2022-09-18T01:09:03.695Z,1006.46
2022-09-18T01:09:44.210Z,1006.49
2022-09-18T01:10:24.691Z,1006.49
2022-09-18T01:11:05.183Z,1006.51
2022-09-18T01:11:45.665Z,1006.49
2022-09-18T01:12:26.114Z,1006.51
2022-09-18T01:13:06.693Z,1006.46
2022-09-18T01:13:47.114Z,1006.49
2022-09-18T01:14:27.595Z,1006.5
2022-09-18T01:15:08.077Z,1006.5
2022-09-18T01:15:48.776Z,1006.49
2022-09-18T01:16:29.057Z,1006.44
2022-09-18T01:17:09.520Z,1006.47
2022-09-18T01:17:49.999Z,1006.44
2022-09-18T01:18:30.458Z,1006.47
2022-09-18T01:19:10.944Z,1006.45
2022-09-18T01:19:51.437Z,1006.43
2022-09-18T01:20:31.894Z,1006.45
2022-09-18T01:21:12.361Z,1006.44
2022-09-18T01:21:52.870Z,1006.48
2022-09-18T01:22:33.323Z,1006.47
2022-09-18T01:23:13.788Z,1006.48
2022-09-18T01:23:54.266Z,1006.45
2022-09-18T01:24:34.767Z,1006.51
2022-09-18T01:25:15.250Z,1006.51
2022-09-18T01:25:55.737Z,1006.51
2022-09-18T01:26:36.199Z,1006.49
2022-09-18T01:27:16.699Z,1006.52
2022-09-18T01:27:57.166Z,1006.55
2022-09-18T01:28:37.654Z,1006.53
2022-09-18T01:29:18.298Z,1006.48
2022-09-18T01:29:58.804Z,1006.47
2022-09-18T01:30:39.278Z,1006.48
2022-09-18T01:31:20.027Z,1006.51
2022-09-18T01:32:00.280Z,1006.49
2022-09-18T01:32:40.787Z,1006.47
2022-09-18T01:33:21.201Z,1006.48
2022-09-18T01:34:01.700Z,1006.43
2022-09-18T01:34:42.128Z,1006.5
2022-09-18T01:35:41.377Z,1006.44
2022-09-18T01:36:03.116Z,1006.5
2022-09-18T01:36:43.628Z,1006.48
2022-09-18T01:37:24.093Z,1006.48
2022-09-18T01:38:04.593Z,1006.5
2022-09-18T01:38:45.086Z,1006.48
2022-09-18T01:39:25.550Z,1006.49
2022-09-18T01:40:06.057Z,1006.47
2022-09-18T01:40:46.499Z,1006.48
2022-09-18T01:41:26.988Z,1006.46
2022-09-18T01:42:07.484Z,1006.45
2022-09-18T01:42:47.924Z,1006.49
2022-09-18T01:43:28.409Z,1006.5
2022-09-18T01:44:08.858Z,1006.52
2022-09-18T01:44:49.355Z,1006.49
2022-09-18T01:45:29.901Z,1006.53
2022-09-18T01:46:10.378Z,1006.53
2022-09-18T01:48:12.584Z,1006.52
2022-09-18T01:49:00.150Z,1006.54
2022-09-18T01:49:48.801Z,1006.54
2022-09-18T01:50:38.286Z,1006.47
2022-09-18T01:51:26.875Z,1006.54
2022-09-18T01:53:47.893Z,1006.46
2022-09-18T01:54:28.416Z,1006.51
2022-09-18T01:55:08.944Z,1006.47
2022-09-18T01:55:49.453Z,1006.49
2022-09-18T01:56:29.954Z,1006.49
2022-09-18T01:57:10.412Z,1006.44
2022-09-18T01:57:50.889Z,1006.48
2022-09-18T01:58:31.353Z,1006.49
2022-09-18T01:59:11.861Z,1006.48
2022-09-18T01:59:52.429Z,1006.46
2022-09-18T02:00:32.864Z,1006.5
2022-09-18T02:01:13.473Z,1006.5
2022-09-18T02:01:54.030Z,1006.54
2022-09-18T02:02:34.476Z,1006.46
2022-09-18T02:03:14.866Z,1006.45
2022-09-18T02:03:55.457Z,1006.45
2022-09-18T02:04:35.891Z,1006.5
2022-09-18T02:05:16.369Z,1006.43
2022-09-18T02:06:38.004Z,1006.41
2022-09-18T02:07:19.061Z,1006.44
2022-09-18T02:07:58.968Z,1006.43
2022-09-18T02:08:39.477Z,1006.38
2022-09-18T02:09:19.929Z,1006.41
2022-09-18T02:10:00.429Z,1006.38
2022-09-18T02:10:40.902Z,1006.4
2022-09-18T02:11:21.371Z,1006.35
2022-09-18T02:12:01.903Z,1006.39
2022-09-18T02:12:42.405Z,1006.39
2022-09-18T02:13:22.849Z,1006.38
2022-09-18T02:14:03.336Z,1006.41
2022-09-18T02:14:43.847Z,1006.46
2022-09-18T02:15:24.324Z,1006.45
2022-09-18T02:16:04.885Z,1006.46
2022-09-18T02:16:45.373Z,1006.46
2022-09-18T02:17:25.802Z,1006.43
2022-09-18T02:18:07.060Z,1006.35
2022-09-18T02:18:47.024Z,1006.48
2022-09-18T02:19:27.650Z,1006.41
2022-09-18T02:20:08.059Z,1006.41
2022-09-18T02:20:48.543Z,1006.44
2022-09-18T02:22:09.473Z,1006.46
2022-09-18T02:22:49.951Z,1006.42
2022-09-18T02:23:30.407Z,1006.4
2022-09-18T02:24:10.905Z,1006.39
2022-09-18T02:24:51.395Z,1006.38
2022-09-18T02:30:52.665Z,1006.32
2022-09-18T02:31:40.847Z,1006.39
2022-09-18T02:32:29.725Z,1006.35
2022-09-18T02:33:18.266Z,1006.4
2022-09-18T02:34:59.328Z,1006.38
2022-09-18T02:35:40.366Z,1006.34
2022-09-18T02:36:21.331Z,1006.36
2022-09-18T02:37:05.039Z,1006.34
2022-09-18T02:37:46.074Z,1006.39
2022-09-18T02:38:27.046Z,1006.34
2022-09-18T02:39:08.063Z,1006.33
2022-09-18T02:39:52.112Z,1006.36
2022-09-18T02:40:33.077Z,1006.39
2022-09-18T02:41:14.076Z,1006.39
2022-09-18T02:41:57.108Z,1006.38
2022-09-18T02:42:38.569Z,1006.32
2022-09-18T02:43:21.775Z,1006.39
2022-09-18T02:44:02.734Z,1006.34
2022-09-18T02:44:43.704Z,1006.2
2022-09-18T02:45:24.700Z,1006.3
2022-09-18T02:46:05.727Z,1006.33
2022-09-18T02:46:46.904Z,1006.31
2022-09-18T02:47:27.842Z,1006.32
2022-09-18T02:48:09.002Z,1006.39
2022-09-18T02:48:51.204Z,1006.34
2022-09-18T02:49:32.057Z,1006.3
2022-09-18T02:50:13.121Z,1006.31
2022-09-18T02:50:54.009Z,1006.34
2022-09-18T02:51:35.082Z,1006.31
2022-09-18T02:52:16.078Z,1006.31
2022-09-18T02:52:56.994Z,1006.3
2022-09-18T02:53:37.985Z,1006.26
2022-09-18T02:54:18.999Z,1006.31
2022-09-18T02:55:00.009Z,1006.31
2022-09-18T02:55:41.116Z,1006.32
2022-09-18T02:56:22.382Z,1006.31
2022-09-18T02:57:06.914Z,1006.3
2022-09-18T02:57:48.656Z,1006.28
2022-09-18T02:58:29.632Z,1006.23
2022-09-18T02:59:11.461Z,1006.33
2022-09-18T02:59:52.542Z,1006.28
2022-09-18T03:00:33.679Z,1006.28
2022-09-18T03:01:14.686Z,1006.29
2022-09-18T03:01:57.421Z,1006.27
2022-09-18T03:02:38.395Z,1006.3
2022-09-18T03:03:22.114Z,1006.33
2022-09-18T03:04:03.105Z,1006.32
2022-09-18T03:08:19.108Z,1006.28
2022-09-18T03:09:06.324Z,1006.21
2022-09-18T03:09:55.526Z,1006.25
2022-09-18T03:10:46.708Z,1006.22
2022-09-18T03:11:29.817Z,1006.24
2022-09-18T03:12:10.421Z,1006.2
2022-09-18T03:12:50.859Z,1006.19
2022-09-18T03:13:31.311Z,1006.24
2022-09-18T03:14:12.739Z,1006.24
2022-09-18T03:14:53.344Z,1006.21
2022-09-18T03:15:33.987Z,1006.14
2022-09-18T03:16:14.491Z,1006.25
2022-09-18T03:16:54.926Z,1006.24
2022-09-18T03:17:35.480Z,1006.24
2022-09-18T03:18:15.971Z,1006.25
2022-09-18T03:18:56.340Z,1006.26
2022-09-18T03:19:36.884Z,1006.22
2022-09-18T03:20:17.352Z,1006.2
2022-09-18T03:22:30.178Z,1006.22
2022-09-18T03:23:10.706Z,1006.23
2022-09-18T03:23:51.296Z,1006.23
2022-09-18T03:24:31.642Z,1006.23
2022-09-18T03:25:12.098Z,1006.22
2022-09-18T03:25:52.585Z,1006.24
2022-09-18T03:26:33.096Z,1006.2
2022-09-18T03:27:13.714Z,1006.17
2022-09-18T03:27:54.070Z,1006.22
2022-09-18T03:28:34.602Z,1006.2
2022-09-18T03:29:15.034Z,1006.16
2022-09-18T03:29:55.491Z,1006.15
2022-09-18T03:30:35.992Z,1006.17
2022-09-18T03:31:16.574Z,1006.18
2022-09-18T03:31:57.093Z,1006.18
2022-09-18T03:32:37.490Z,1006.14
2022-09-18T03:33:17.985Z,1006.19
2022-09-18T03:33:58.458Z,1006.19
2022-09-18T03:34:38.965Z,1006.23
2022-09-18T03:35:19.483Z,1006.19
2022-09-18T03:35:59.901Z,1006.18
2022-09-18T03:39:16.112Z,1006.22
2022-09-18T03:39:54.108Z,1006.25
2022-09-18T03:40:34.626Z,1006.24
2022-09-18T03:41:15.054Z,1006.2
2022-09-18T03:41:55.538Z,1006.27
2022-09-18T03:42:36.008Z,1006.24
2022-09-18T03:43:16.486Z,1006.25
2022-09-18T03:43:56.977Z,1006.25
2022-09-18T03:44:37.464Z,1006.17
2022-09-18T03:45:17.967Z,1006.13
2022-09-18T03:45:58.487Z,1006.16
2022-09-18T03:46:38.947Z,1006.15
2022-09-18T03:47:19.478Z,1006.2
2022-09-18T03:47:59.918Z,1006.13
2022-09-18T03:48:40.388Z,1006.13
2022-09-18T03:49:20.856Z,1006.12
2022-09-18T03:50:01.371Z,1006.16
2022-09-18T03:50:42.572Z,1006.19
2022-09-18T03:51:23.078Z,1006.13
2022-09-18T03:52:03.570Z,1006.2
2022-09-18T03:52:46.603Z,1006.14
2022-09-18T03:53:24.489Z,1006.19
2022-09-18T03:54:04.969Z,1006.12
2022-09-18T03:54:45.595Z,1006.11
2022-09-18T03:55:25.998Z,1006.11
2022-09-18T03:56:06.495Z,1006.14
2022-09-18T03:56:46.982Z,1006.12
2022-09-18T03:57:27.499Z,1006.13
2022-09-18T03:58:07.968Z,1006.12
2022-09-18T03:58:48.446Z,1006.11
2022-09-18T03:59:28.913Z,1006.14
2022-09-18T04:00:09.395Z,1006.16
2022-09-18T04:00:49.884Z,1006.16
2022-09-18T04:01:30.411Z,1006.2
2022-09-18T04:02:10.826Z,1006.21
2022-09-18T04:02:51.311Z,1006.17
2022-09-18T04:03:31.742Z,1006.2
2022-09-18T04:04:12.227Z,1006.2
2022-09-18T04:04:52.691Z,1006.19
2022-09-18T04:05:33.192Z,1006.16
2022-09-18T04:06:13.661Z,1006.21
2022-09-18T04:06:54.141Z,1006.21
2022-09-18T04:07:34.614Z,1006.25
2022-09-18T04:08:15.089Z,1006.26
2022-09-18T04:08:55.560Z,1006.31
2022-09-18T04:09:36.019Z,1006.33
2022-09-18T04:10:16.595Z,1006.29
2022-09-18T04:10:56.946Z,1006.29
2022-09-18T04:11:37.435Z,1006.31
2022-09-18T04:12:17.941Z,1006.29
2022-09-18T04:12:58.375Z,1006.35
2022-09-18T04:13:38.823Z,1006.27
2022-09-18T04:14:19.300Z,1006.3
2022-09-18T04:15:40.234Z,1006.23
2022-09-18T04:16:20.784Z,1006.21
2022-09-18T04:17:01.236Z,1006.23
2022-09-18T04:17:41.695Z,1006.24
2022-09-18T04:18:22.187Z,1006.23
2022-09-18T04:19:02.939Z,1006.24
2022-09-18T04:19:43.436Z,1006.23
2022-09-18T04:22:46.410Z,1006.22
2022-09-18T04:24:39.299Z,1006.16
2022-09-18T04:25:19.993Z,1006.17
2022-09-18T04:26:00.138Z,1006.18
2022-09-18T04:26:40.630Z,1006.16
2022-09-18T04:27:21.149Z,1006.2
2022-09-18T04:28:01.611Z,1006.16
2022-09-18T04:28:42.155Z,1006.16
2022-09-18T04:29:22.581Z,1006.12
2022-09-18T04:30:03.599Z,1006.13
2022-09-18T04:30:44.109Z,1006.08
2022-09-18T04:31:24.673Z,1006.09
2022-09-18T04:32:05.031Z,1006.11
2022-09-18T04:32:45.552Z,1006.11
2022-09-18T04:33:26.042Z,1006.07
2022-09-18T04:34:06.575Z,1006.12
2022-09-18T04:34:47.025Z,1006.14
2022-09-18T04:35:27.497Z,1006.12
2022-09-18T04:36:08.036Z,1006.12
2022-09-18T04:36:48.441Z,1006.16
2022-09-18T04:37:28.893Z,1006.12
2022-09-18T04:38:09.378Z,1006.14
2022-09-18T04:38:49.846Z,1006.14
2022-09-18T04:39:30.325Z,1006.19
2022-09-18T04:40:10.875Z,1006.21
2022-09-18T04:40:51.462Z,1006.21
2022-09-18T04:41:31.823Z,1006.22
2022-09-18T04:42:12.291Z,1006.22
2022-09-18T04:42:52.743Z,1006.23
2022-09-18T04:43:33.207Z,1006.18
2022-09-18T04:44:13.735Z,1006.23
2022-09-18T04:44:54.179Z,1006.2
2022-09-18T04:45:34.684Z,1006.22
2022-09-18T04:46:15.250Z,1006.23
2022-09-18T04:46:55.703Z,1006.24
2022-09-18T04:47:36.158Z,1006.23
2022-09-18T04:48:16.621Z,1006.24
2022-09-18T04:48:57.090Z,1006.25
2022-09-18T04:49:37.551Z,1006.23
2022-09-18T04:50:18.108Z,1006.21
2022-09-18T04:50:58.743Z,1006.21
2022-09-18T04:51:39.230Z,1006.21
2022-09-18T04:52:19.714Z,1006.21
2022-09-18T04:53:40.731Z,1006.22
2022-09-18T04:54:21.233Z,1006.21
2022-09-18T04:55:01.719Z,1006.27
2022-09-18T04:55:42.732Z,1006.2
2022-09-18T04:56:23.377Z,1006.25
2022-09-18T04:57:03.736Z,1006.25
2022-09-18T04:57:44.229Z,1006.2
2022-09-18T04:58:24.674Z,1006.19
2022-09-18T04:59:05.243Z,1006.19
2022-09-18T04:59:45.840Z,1006.23
2022-09-18T05:00:26.220Z,1006.14
2022-09-18T05:01:06.647Z,1006.19
2022-09-18T05:01:47.174Z,1006.15
2022-09-18T05:02:27.619Z,1006.13
2022-09-18T05:03:08.027Z,1006.12
2022-09-18T05:03:48.524Z,1006.09
2022-09-18T05:04:28.989Z,1006.06
2022-09-18T05:05:09.485Z,1006.06
2022-09-18T05:05:49.931Z,1006.06
2022-09-18T05:06:30.462Z,1006.06
2022-09-18T05:07:10.981Z,1006.07
2022-09-18T05:07:51.431Z,1006.09
2022-09-18T05:08:31.938Z,1006.04
2022-09-18T05:09:12.405Z,1006.05
2022-09-18T05:09:52.913Z,1006.03
2022-09-18T05:10:33.319Z,1006.04
2022-09-18T05:11:13.809Z,1006.08
2022-09-18T05:11:54.401Z,1006.04
2022-09-18T05:12:34.788Z,1006.03
2022-09-18T05:13:15.264Z,1006.02
2022-09-18T05:13:55.747Z,1006.01
2022-09-18T05:14:36.191Z,1006.01
2022-09-18T05:15:16.719Z,1005.96
2022-09-18T05:15:57.272Z,1005.97
2022-09-18T05:16:37.810Z,1006
2022-09-18T05:17:18.163Z,1006.03
2022-09-18T05:17:58.635Z,1006.01
2022-09-18T05:18:39.123Z,1005.98
2022-09-18T05:19:19.608Z,1006.03
2022-09-18T05:20:00.081Z,1006.01
2022-09-18T05:20:40.968Z,1006.02
2022-09-18T05:21:21.237Z,1006.06
2022-09-18T05:22:01.740Z,1005.96
2022-09-18T05:22:42.221Z,1006.02
2022-09-18T05:23:22.696Z,1006.03
2022-09-18T05:24:03.213Z,1006.04
2022-09-18T05:24:43.613Z,1005.97
2022-09-18T05:25:24.130Z,1005.97
2022-09-18T05:26:04.774Z,1006.05
2022-09-18T05:26:45.251Z,1006.06
2022-09-18T05:27:26.971Z,1006.08
2022-09-18T05:28:06.225Z,1006.09
2022-09-18T05:28:46.710Z,1006.08
2022-09-18T05:29:27.198Z,1006.04
2022-09-18T05:30:07.692Z,1006.11
2022-09-18T05:30:48.153Z,1006.05
2022-09-18T05:33:46.833Z,1006.09
2022-09-18T05:34:27.423Z,1006.1
2022-09-18T05:35:07.847Z,1006.07
2022-09-18T05:35:48.311Z,1006.09
2022-09-18T05:36:28.842Z,1006.1
2022-09-18T05:37:09.302Z,1006.1
2022-09-18T05:37:49.798Z,1006.08
2022-09-18T05:39:14.276Z,1006.12
2022-09-18T05:39:51.403Z,1006.12
2022-09-18T05:40:31.819Z,1006.06
2022-09-18T05:41:12.212Z,1006.11
2022-09-18T05:41:52.687Z,1006.12
2022-09-18T05:42:33.326Z,1006.02
2022-09-18T05:43:13.696Z,1006.1
2022-09-18T05:43:54.223Z,1006.15
2022-09-18T05:44:34.707Z,1006.07
2022-09-18T05:45:15.325Z,1006.08
2022-09-18T05:45:55.895Z,1006.02
2022-09-18T05:46:36.326Z,1006.11
2022-09-18T05:47:16.744Z,1006.03
2022-09-18T05:47:57.240Z,1006.03
2022-09-18T05:48:37.769Z,1005.99
2022-09-18T05:49:18.188Z,1006.01
2022-09-18T05:49:58.745Z,1006.06
2022-09-18T05:50:39.185Z,1006.05
2022-09-18T05:51:19.632Z,1006.07
2022-09-18T05:52:00.093Z,1006.06
2022-09-18T05:52:40.604Z,1006.07
2022-09-18T06:32:07.718Z,1006.27
2022-09-18T06:32:48.169Z,1006.3
2022-09-18T06:33:29.415Z,1006.29
2022-09-18T06:34:09.878Z,1006.25
2022-09-18T06:34:50.328Z,1006.28
2022-09-18T06:35:30.843Z,1006.24
2022-09-18T06:36:11.351Z,1006.21
2022-09-18T06:36:51.861Z,1006.25
2022-09-18T06:37:32.309Z,1006.26
2022-09-18T06:38:12.768Z,1006.18
2022-09-18T06:38:53.288Z,1006.22
2022-09-18T06:39:33.785Z,1006.2
2022-09-18T06:40:14.297Z,1006.26
2022-09-18T06:40:54.764Z,1006.23
2022-09-18T06:41:35.228Z,1006.25
2022-09-18T06:42:15.719Z,1006.26
2022-09-18T06:42:56.202Z,1006.32
2022-09-18T06:43:36.695Z,1006.29
2022-09-18T06:44:17.158Z,1006.24
2022-09-18T06:44:57.637Z,1006.3
2022-09-18T06:48:11.518Z,1006.32
2022-09-18T06:48:52.006Z,1006.29
2022-09-18T06:49:32.571Z,1006.29
2022-09-18T06:50:13.015Z,1006.34
2022-09-18T06:50:53.491Z,1006.35
2022-09-18T06:51:34.013Z,1006.25
2022-09-18T06:52:14.527Z,1006.25
2022-09-18T06:52:54.987Z,1006.27
2022-09-18T06:53:35.496Z,1006.2
2022-09-18T06:54:15.976Z,1006.25
2022-09-18T06:54:56.481Z,1006.2
2022-09-18T06:55:36.926Z,1006.29
2022-09-18T06:56:17.494Z,1006.28
2022-09-18T06:56:57.932Z,1006.29
2022-09-18T06:57:38.427Z,1006.31
2022-09-18T06:58:18.877Z,1006.28
2022-09-18T06:58:59.432Z,1006.28
2022-09-18T07:01:58.472Z,1006.32
2022-09-18T07:02:49.345Z,1006.31
2022-09-18T07:03:39.231Z,1006.31
2022-09-18T07:05:37.518Z,1006.28
2022-09-18T07:06:18.144Z,1006.33
2022-09-18T07:06:58.657Z,1006.35
2022-09-18T07:07:39.119Z,1006.32
2022-09-18T07:08:19.620Z,1006.31
2022-09-18T07:09:00.097Z,1006.31
2022-09-18T07:10:21.029Z,1006.32
2022-09-18T07:11:01.532Z,1006.28
2022-09-18T07:11:41.962Z,1006.17
2022-09-18T07:12:22.425Z,1006.23
2022-09-18T07:13:03.038Z,1006.21
2022-09-18T07:13:43.558Z,1006.2
2022-09-18T07:14:24.016Z,1006.16
2022-09-18T07:15:04.488Z,1006.16
2022-09-18T07:15:45.038Z,1006.14
2022-09-18T07:16:25.516Z,1006.15
2022-09-18T07:17:05.961Z,1006.14
2022-09-18T07:17:46.502Z,1006.13
2022-09-18T07:18:27.008Z,1006.1
2022-09-18T07:19:07.639Z,1006.15
2022-09-18T07:20:28.484Z,1006.17
2022-09-18T07:21:08.944Z,1006.22
2022-09-18T07:21:49.438Z,1006.17
2022-09-18T07:22:29.951Z,1006.25
2022-09-18T07:23:10.402Z,1006.23
2022-09-18T07:23:51.009Z,1006.21
2022-09-18T07:24:31.496Z,1006.22
2022-09-18T07:25:11.957Z,1006.28
2022-09-18T07:25:52.455Z,1006.23
2022-09-18T07:26:32.951Z,1006.21
2022-09-18T07:27:13.560Z,1006.27
2022-09-18T07:27:54.921Z,1006.28
2022-09-18T07:28:35.419Z,1006.21
2022-09-18T07:29:16.695Z,1006.21
2022-09-18T07:29:57.176Z,1006.23
2022-09-18T07:30:37.697Z,1006.21
2022-09-18T07:31:18.182Z,1006.29
2022-09-18T07:31:58.688Z,1006.25
2022-09-18T07:32:39.147Z,1006.18
2022-09-18T07:33:19.727Z,1006.28
2022-09-18T07:34:00.245Z,1006.15
2022-09-18T07:34:40.794Z,1006.23
2022-09-18T07:35:21.150Z,1006.13
2022-09-18T07:36:01.676Z,1006.21
2022-09-18T07:36:42.207Z,1006.16
2022-09-18T07:37:22.670Z,1006.11
2022-09-18T07:38:03.149Z,1006.21
2022-09-18T07:38:43.630Z,1006.03
2022-09-18T07:39:24.147Z,1006.18
2022-09-18T07:40:04.656Z,1006.16
2022-09-18T07:40:45.152Z,1006.17
2022-09-18T07:41:25.682Z,1006.06
2022-09-18T07:42:08.892Z,1006.14
2022-09-18T07:42:46.672Z,1006.11
2022-09-18T07:44:07.674Z,1006.19
2022-09-18T07:44:48.141Z,1006.22
2022-09-18T07:45:28.617Z,1006.16
2022-09-18T07:46:09.144Z,1006.27
2022-09-18T07:46:49.744Z,1006.26
2022-09-18T07:47:30.243Z,1006.23
2022-09-18T07:48:10.771Z,1006.18
2022-09-18T07:48:51.248Z,1006.35
2022-09-18T07:49:31.690Z,1006.19
2022-09-18T07:50:12.299Z,1006.23
2022-09-18T07:50:52.672Z,1006.23
2022-09-18T07:51:33.551Z,1006.14
2022-09-18T07:52:14.095Z,1006.16
2022-09-18T07:52:54.559Z,1006.18
2022-09-18T07:53:35.051Z,1006.14
2022-09-18T07:54:15.535Z,1006.19
2022-09-18T07:54:56.101Z,1006.06
2022-09-18T07:55:36.541Z,1006.17
2022-09-18T07:56:17.067Z,1006.11
2022-09-18T07:56:57.547Z,1006.14
2022-09-18T07:57:38.045Z,1006.11
2022-09-18T07:58:18.600Z,1006.1
2022-09-18T07:58:59.093Z,1006.07
2022-09-18T07:59:39.729Z,1006.07
2022-09-18T08:00:20.154Z,1006.07
2022-09-18T08:01:00.715Z,1005.94
2022-09-18T08:01:41.337Z,1006.06
2022-09-18T08:02:21.814Z,1006.1
2022-09-18T08:03:02.277Z,1006.11
2022-09-18T08:03:42.695Z,1006.11
2022-09-18T08:04:23.376Z,1006.09
2022-09-18T08:05:03.849Z,1006.08
2022-09-18T08:05:44.472Z,1006.11
2022-09-18T08:06:24.836Z,1006.09
2022-09-18T08:07:05.997Z,1006.06
2022-09-18T08:07:46.444Z,1006.13
2022-09-18T08:08:26.998Z,1006.21
2022-09-18T08:09:07.432Z,1006.18
2022-09-18T08:09:47.911Z,1006.17
2022-09-18T08:10:28.440Z,1006.17
2022-09-18T08:11:08.882Z,1006.09
2022-09-18T08:11:49.369Z,1006.2
2022-09-18T08:12:29.871Z,1006.14
2022-09-18T08:13:10.352Z,1006.22
2022-09-18T08:13:50.881Z,1006.18
2022-09-18T08:15:11.915Z,1006.18
2022-09-18T08:15:52.451Z,1006.1
2022-09-18T08:16:32.964Z,1006.02
2022-09-18T08:17:13.405Z,1006.15
2022-09-18T08:17:53.990Z,1006.03
2022-09-18T08:18:34.438Z,1006.12
2022-09-18T08:19:14.949Z,1006.09
2022-09-18T08:19:55.487Z,1006.05
2022-09-18T08:20:36.043Z,1006.14
2022-09-18T08:21:16.660Z,1006.05
2022-09-18T08:21:56.992Z,1006.07
2022-09-18T08:22:37.502Z,1006.07
2022-09-18T08:23:17.973Z,1006.15
2022-09-18T08:23:58.544Z,1006.16
2022-09-18T08:25:19.407Z,1006.06
2022-09-18T08:25:59.935Z,1006.16
2022-09-18T08:26:40.448Z,1006.2
2022-09-18T08:27:20.910Z,1006.26
2022-09-18T08:28:01.434Z,1006.25
2022-09-18T08:28:41.967Z,1006.18
2022-09-18T08:29:23.281Z,1006.14
2022-09-18T08:30:03.894Z,1006.15
2022-09-18T08:30:44.442Z,1006.17
2022-09-18T08:31:24.993Z,1006.11
2022-09-18T08:32:09.099Z,1006.16
2022-09-18T08:32:46.001Z,1006.2
2022-09-18T08:33:26.482Z,1006.17
2022-09-18T08:34:06.998Z,1006.3
2022-09-18T08:34:47.483Z,1006.15
2022-09-18T08:35:27.973Z,1006.09
2022-09-18T08:36:08.428Z,1006.15
2022-09-18T08:36:49.109Z,1006.14
2022-09-18T08:37:29.499Z,1006.14
2022-09-18T08:38:10.016Z,1006.11
2022-09-18T08:38:50.559Z,1006.13
2022-09-18T08:39:31.059Z,1006.1
2022-09-18T08:40:11.596Z,1006.23
2022-09-18T08:40:52.004Z,1006.19
2022-09-18T08:41:32.501Z,1006.19
2022-09-18T08:42:13.015Z,1006.19
2022-09-18T08:42:53.650Z,1006.29
2022-09-18T08:43:34.203Z,1006.04
2022-09-18T08:44:14.706Z,1006.11
2022-09-18T08:44:55.264Z,1006.13
2022-09-18T08:45:35.856Z,1006.11
2022-09-18T08:46:16.404Z,1006.2
2022-09-18T08:46:56.882Z,1006.21
2022-09-18T08:47:37.312Z,1006.11
2022-09-18T08:48:17.838Z,1006.15
2022-09-18T08:48:58.333Z,1006.16
2022-09-18T08:49:38.816Z,1006.17
2022-09-18T08:50:19.333Z,1006.06
2022-09-18T08:50:59.818Z,1006.09
2022-09-18T08:51:40.363Z,1006.13
2022-09-18T08:52:20.863Z,1006.13
2022-09-18T08:53:01.342Z,1006.26
2022-09-18T08:53:41.827Z,1006.07
2022-09-18T08:54:22.345Z,1006.18
2022-09-18T08:55:02.832Z,1006.04
2022-09-18T08:55:43.329Z,1006.18
2022-09-18T08:56:23.860Z,1006.11
2022-09-18T08:57:04.360Z,1006.17
2022-09-18T08:57:44.909Z,1006.12
2022-09-18T08:58:25.468Z,1006.16
2022-09-18T08:59:05.960Z,1006.11
2022-09-18T08:59:46.485Z,1006.16
2022-09-18T09:00:26.974Z,1005.99
2022-09-18T09:01:07.520Z,1006.1
2022-09-18T09:01:48.107Z,1006.05
2022-09-18T09:02:28.553Z,1006.13
2022-09-18T09:03:09.119Z,1006.09
2022-09-18T09:03:49.599Z,1006.11
2022-09-18T09:04:30.056Z,1006.12
2022-09-18T09:05:10.578Z,1006.14
2022-09-18T09:05:51.075Z,1006.06
2022-09-18T09:06:31.578Z,1005.93
2022-09-18T09:07:12.160Z,1006.13
2022-09-18T09:07:52.774Z,1006.1
2022-09-18T09:08:33.121Z,1006
2022-09-18T09:09:16.938Z,1006.08
2022-09-18T09:09:54.071Z,1006.12
2022-09-18T09:10:34.563Z,1006.18
2022-09-18T09:11:15.054Z,1006.14
2022-09-18T09:11:55.608Z,1006.22
2022-09-18T09:12:36.684Z,1006.1
2022-09-18T09:13:17.246Z,1006.15
2022-09-18T09:17:13.549Z,1006.13
2022-09-18T09:17:54.498Z,1006.09
2022-09-18T09:18:34.934Z,1006.07
2022-09-18T09:19:15.885Z,1006.17
2022-09-18T09:19:56.378Z,1006.12
2022-09-18T09:20:36.929Z,1005.97
2022-09-18T09:21:17.410Z,1006.1
2022-09-18T09:21:57.896Z,1006.2
2022-09-18T09:22:38.358Z,1006.07
2022-09-18T09:23:18.968Z,1006.03
2022-09-18T09:23:59.330Z,1006.14
2022-09-18T09:24:39.805Z,1006.14
2022-09-18T09:25:20.320Z,1006.17
2022-09-18T09:26:00.788Z,1006.09
2022-09-18T09:26:41.234Z,1006.08
2022-09-18T09:27:21.713Z,1006
2022-09-18T09:28:02.218Z,1005.91
2022-09-18T09:28:42.722Z,1006.07
2022-09-18T09:29:23.203Z,1006.06
2022-09-18T09:30:03.664Z,1006.07
2022-09-18T09:30:44.184Z,1005.92
2022-09-18T09:31:24.698Z,1006
2022-09-18T09:32:06.093Z,1006.02
2022-09-18T09:32:46.554Z,1006.03
2022-09-18T09:33:27.009Z,1006.08
2022-09-18T09:34:07.526Z,1006.06
2022-09-18T09:34:48.007Z,1006
2022-09-18T09:35:28.481Z,1006
2022-09-18T09:36:08.930Z,1006.03
2022-09-18T09:36:49.553Z,1006.02
2022-09-18T09:37:33.640Z,1005.96
2022-09-18T09:38:10.558Z,1006.13
2022-09-18T09:38:51.173Z,1005.99
2022-09-18T09:39:31.542Z,1006.14
2022-09-18T09:40:12.232Z,1006.17
2022-09-18T09:41:33.022Z,1006.1
2022-09-18T09:42:13.586Z,1006.14
2022-09-18T09:42:54.083Z,1006.13
2022-09-18T09:43:34.515Z,1006.1
2022-09-18T09:44:14.984Z,1006.14
2022-09-18T09:44:56.343Z,1006.14
2022-09-18T09:45:36.842Z,1006.15
2022-09-18T09:46:21.264Z,1006.11
2022-09-18T09:46:57.831Z,1006.08
2022-09-18T09:47:38.240Z,1005.95
2022-09-18T09:48:18.699Z,1006.01
2022-09-18T09:48:59.195Z,1005.97
2022-09-18T09:49:39.672Z,1005.86
2022-09-18T09:50:20.160Z,1005.98
2022-09-18T09:51:00.641Z,1005.98
2022-09-18T09:51:41.096Z,1005.84
2022-09-18T09:52:21.586Z,1005.96
2022-09-18T09:53:02.081Z,1005.92
2022-09-18T09:53:42.615Z,1005.9
2022-09-18T09:54:23.285Z,1005.95
2022-09-18T09:55:03.711Z,1005.92
2022-09-18T09:55:44.309Z,1005.94
2022-09-18T09:56:24.800Z,1005.98
2022-09-18T09:57:05.259Z,1005.92
2022-09-18T09:57:45.781Z,1005.91
2022-09-18T09:58:26.275Z,1005.91
2022-09-18T09:59:47.243Z,1005.88
2022-09-18T10:00:27.827Z,1005.83
2022-09-18T10:01:08.339Z,1005.81
2022-09-18T10:01:48.817Z,1005.83
2022-09-18T10:02:29.338Z,1005.88
2022-09-18T10:03:09.840Z,1005.78
2022-09-18T10:03:50.315Z,1005.88
2022-09-18T10:04:30.797Z,1005.91